sensor_id;sensor_type;location;lat;lon;timestamp;pressure;altitude;pressure_sealevel;temperature;humidity
24336;BME280;33098;52.400;16.880;2023-04-02T00:07:52;100195.64;;;6.49;84.03
24336;BME280;33098;52.400;16.880;2023-04-02T00:10:33;100194.96;;;6.49;84.10
24336;BME280;33098;52.400;16.880;2023-04-02T00:13:03;100198.13;;;6.49;84.10
24336;BME280;33098;52.400;16.880;2023-04-02T00:15:31;100202.02;;;6.49;83.93
24336;BME280;33098;52.400;16.880;2023-04-02T00:17:59;100203.36;;;6.47;83.87
24336;BME280;33098;52.400;16.880;2023-04-02T00:20:29;100203.36;;;6.50;83.87
24336;BME280;33098;52.400;16.880;2023-04-02T00:22:57;100206.55;;;6.50;83.67
24336;BME280;33098;52.400;16.880;2023-04-02T00:25:27;100210.71;;;6.42;83.41
24336;BME280;33098;52.400;16.880;2023-04-02T00:27:58;100212.06;;;6.41;83.47
24336;BME280;33098;52.400;16.880;2023-04-02T00:30:25;100214.05;;;6.40;83.39
24336;BME280;33098;52.400;16.880;2023-04-02T00:32:53;100219.42;;;6.38;83.29
24336;BME280;33098;52.400;16.880;2023-04-02T00:35:26;100220.15;;;6.38;83.28
24336;BME280;33098;52.400;16.880;2023-04-02T00:37:54;100218.73;;;6.38;83.24
24336;BME280;33098;52.400;16.880;2023-04-02T00:40:29;100223.02;;;6.40;83.24
24336;BME280;33098;52.400;16.880;2023-04-02T00:42:58;100225.64;;;6.35;82.97
24336;BME280;33098;52.400;16.880;2023-04-02T00:45:33;100225.24;;;6.30;82.78
24336;BME280;33098;52.400;16.880;2023-04-02T00:48:20;100224.08;;;6.29;82.93
24336;BME280;33098;52.400;16.880;2023-04-02T00:50:52;100228.54;;;6.31;82.94
24336;BME280;33098;52.400;16.880;2023-04-02T00:53:26;100231.38;;;6.34;82.98
24336;BME280;33098;52.400;16.880;2023-04-02T00:55:56;100227.14;;;6.33;82.91
24336;BME280;33098;52.400;16.880;2023-04-02T00:58:31;100229.63;;;6.28;82.81
24336;BME280;33098;52.400;16.880;2023-04-02T01:01:00;100236.81;;;6.31;82.94
24336;BME280;33098;52.400;16.880;2023-04-02T01:03:34;100234.36;;;6.31;82.93
24336;BME280;33098;52.400;16.880;2023-04-02T01:14:15;100245.66;;;6.31;82.80
24336;BME280;33098;52.400;16.880;2023-04-02T01:16:59;100249.66;;;6.31;82.78
24336;BME280;33098;52.400;16.880;2023-04-02T01:22:46;100256.80;;;6.33;82.76
24336;BME280;33098;52.400;16.880;2023-04-02T01:25:25;100256.23;;;6.36;82.58
24336;BME280;33098;52.400;16.880;2023-04-02T01:28:16;100258.20;;;6.33;82.44
24336;BME280;33098;52.400;16.880;2023-04-02T01:30:51;100259.96;;;6.33;82.54
24336;BME280;33098;52.400;16.880;2023-04-02T01:33:21;100264.04;;;6.35;82.47
24336;BME280;33098;52.400;16.880;2023-04-02T01:35:54;100266.89;;;6.37;82.44
24336;BME280;33098;52.400;16.880;2023-04-02T01:38:26;100267.06;;;6.32;82.23
24336;BME280;33098;52.400;16.880;2023-04-02T01:41:07;100268.52;;;6.28;82.15
24336;BME280;33098;52.400;16.880;2023-04-02T01:43:43;100269.29;;;6.33;82.27
24336;BME280;33098;52.400;16.880;2023-04-02T01:46:27;100275.42;;;6.36;82.30
24336;BME280;33098;52.400;16.880;2023-04-02T01:48:56;100278.75;;;6.34;82.14
24336;BME280;33098;52.400;16.880;2023-04-02T01:51:31;100283.19;;;6.28;82.09
24336;BME280;33098;52.400;16.880;2023-04-02T01:54:01;100289.38;;;6.28;82.16
24336;BME280;33098;52.400;16.880;2023-04-02T01:56:33;100292.90;;;6.28;82.15
24336;BME280;33098;52.400;16.880;2023-04-02T01:59:02;100293.44;;;6.28;82.07
24336;BME280;33098;52.400;16.880;2023-04-02T02:01:51;100297.55;;;6.29;82.10
24336;BME280;33098;52.400;16.880;2023-04-02T02:04:22;100298.32;;;6.31;82.18
24336;BME280;33098;52.400;16.880;2023-04-02T02:06:49;100298.77;;;6.33;82.16
24336;BME280;33098;52.400;16.880;2023-04-02T02:09:21;100307.64;;;6.32;82.03
24336;BME280;33098;52.400;16.880;2023-04-02T02:11:49;100308.80;;;6.35;82.09
24336;BME280;33098;52.400;16.880;2023-04-02T02:14:19;100307.05;;;6.33;81.96
24336;BME280;33098;52.400;16.880;2023-04-02T02:16:51;100311.09;;;6.32;81.96
24336;BME280;33098;52.400;16.880;2023-04-02T02:19:37;100314.19;;;6.31;81.95
24336;BME280;33098;52.400;16.880;2023-04-02T02:25:00;100321.45;;;6.28;81.76
24336;BME280;33098;52.400;16.880;2023-04-02T02:32:47;100325.36;;;6.13;81.55
24336;BME280;33098;52.400;16.880;2023-04-02T02:35:28;100328.45;;;6.14;81.58
24336;BME280;33098;52.400;16.880;2023-04-02T02:44:27;100343.45;;;6.08;81.69
24336;BME280;33098;52.400;16.880;2023-04-02T02:47:28;100346.44;;;6.05;81.56
24336;BME280;33098;52.400;16.880;2023-04-02T02:50:00;100350.95;;;6.03;81.61
24336;BME280;33098;52.400;16.880;2023-04-02T02:52:31;100353.09;;;6.06;81.73
24336;BME280;33098;52.400;16.880;2023-04-02T02:55:12;100355.63;;;6.08;81.66
24336;BME280;33098;52.400;16.880;2023-04-02T02:57:58;100363.09;;;6.07;81.70
24336;BME280;33098;52.400;16.880;2023-04-02T03:00:29;100362.23;;;6.07;81.70
24336;BME280;33098;52.400;16.880;2023-04-02T03:02:58;100367.48;;;6.04;81.57
24336;BME280;33098;52.400;16.880;2023-04-02T03:05:28;100366.52;;;6.05;81.55
24336;BME280;33098;52.400;16.880;2023-04-02T03:07:58;100370.56;;;6.05;81.50
24336;BME280;33098;52.400;16.880;2023-04-02T03:10:39;100371.65;;;6.08;81.51
24336;BME280;33098;52.400;16.880;2023-04-02T03:13:31;100376.41;;;6.11;81.50
24336;BME280;33098;52.400;16.880;2023-04-02T03:16:31;100381.16;;;6.17;81.51
24336;BME280;33098;52.400;16.880;2023-04-02T03:22:18;100385.20;;;6.17;81.29
24336;BME280;33098;52.400;16.880;2023-04-02T03:27:46;100396.55;;;6.13;81.16
24336;BME280;33098;52.400;16.880;2023-04-02T03:30:26;100399.98;;;6.09;80.79
24336;BME280;33098;52.400;16.880;2023-04-02T03:33:00;100404.37;;;6.12;80.97
24336;BME280;33098;52.400;16.880;2023-04-02T03:35:46;100406.85;;;6.09;80.68
24336;BME280;33098;52.400;16.880;2023-04-02T03:41:31;100415.29;;;6.06;80.42
24336;BME280;33098;52.400;16.880;2023-04-02T03:44:03;100421.60;;;6.00;80.15
24336;BME280;33098;52.400;16.880;2023-04-02T03:46:40;100426.08;;;5.87;79.89
24336;BME280;33098;52.400;16.880;2023-04-02T03:49:12;100438.63;;;5.80;79.90
24336;BME280;33098;52.400;16.880;2023-04-02T03:51:59;100440.02;;;5.80;79.84
24336;BME280;33098;52.400;16.880;2023-04-02T03:54:29;100444.91;;;5.84;79.86
24336;BME280;33098;52.400;16.880;2023-04-02T03:56:59;100448.55;;;5.85;79.79
24336;BME280;33098;52.400;16.880;2023-04-02T03:59:40;100451.32;;;5.86;79.72
24336;BME280;33098;52.400;16.880;2023-04-02T04:02:48;100455.02;;;5.80;79.48
24336;BME280;33098;52.400;16.880;2023-04-02T04:05:42;100459.42;;;5.74;79.41
24336;BME280;33098;52.400;16.880;2023-04-02T04:08:17;100460.54;;;5.73;79.34
24336;BME280;33098;52.400;16.880;2023-04-02T04:10:55;100460.81;;;5.74;79.36
24336;BME280;33098;52.400;16.880;2023-04-02T04:13:35;100466.91;;;5.72;79.14
24336;BME280;33098;52.400;16.880;2023-04-02T04:16:08;100469.35;;;5.73;79.19
24336;BME280;33098;52.400;16.880;2023-04-02T04:21:21;100484.80;;;5.83;79.09
24336;BME280;33098;52.400;16.880;2023-04-02T04:24:12;100486.56;;;5.86;79.17
24336;BME280;33098;52.400;16.880;2023-04-02T04:26:49;100493.60;;;5.89;78.97
24336;BME280;33098;52.400;16.880;2023-04-02T04:29:34;100492.67;;;5.87;78.85
24336;BME280;33098;52.400;16.880;2023-04-02T04:32:13;100502.15;;;5.91;78.88
24336;BME280;33098;52.400;16.880;2023-04-02T04:34:47;100507.64;;;5.93;78.85
24336;BME280;33098;52.400;16.880;2023-04-02T04:37:24;100515.70;;;5.91;78.71
24336;BME280;33098;52.400;16.880;2023-04-02T04:42:40;100522.67;;;5.73;78.19
24336;BME280;33098;52.400;16.880;2023-04-02T04:45:15;100521.55;;;5.74;78.28
24336;BME280;33098;52.400;16.880;2023-04-02T04:47:50;100523.91;;;5.80;78.37
24336;BME280;33098;52.400;16.880;2023-04-02T04:50:30;100526.39;;;5.85;78.38
24336;BME280;33098;52.400;16.880;2023-04-02T04:53:07;100533.94;;;5.89;78.20
24336;BME280;33098;52.400;16.880;2023-04-02T04:55:42;100531.55;;;5.91;78.04
24336;BME280;33098;52.400;16.880;2023-04-02T05:00:43;100541.17;;;5.92;77.87
24336;BME280;33098;52.400;16.880;2023-04-02T05:05:48;100548.21;;;5.92;77.70
24336;BME280;33098;52.400;16.880;2023-04-02T05:08:26;100553.59;;;5.93;77.71
24336;BME280;33098;52.400;16.880;2023-04-02T05:11:05;100558.48;;;5.91;77.51
24336;BME280;33098;52.400;16.880;2023-04-02T05:13:41;100567.79;;;5.95;77.58
24336;BME280;33098;52.400;16.880;2023-04-02T05:16:27;100568.79;;;5.96;77.47
24336;BME280;33098;52.400;16.880;2023-04-02T05:19:06;100570.05;;;5.98;77.64
24336;BME280;33098;52.400;16.880;2023-04-02T05:21:53;100573.61;;;6.01;77.66
24336;BME280;33098;52.400;16.880;2023-04-02T05:24:57;100579.60;;;6.04;77.59
24336;BME280;33098;52.400;16.880;2023-04-02T05:30:58;100584.13;;;6.05;77.33
24336;BME280;33098;52.400;16.880;2023-04-02T05:33:33;100588.64;;;6.03;77.16
24336;BME280;33098;52.400;16.880;2023-04-02T05:36:06;100588.89;;;6.05;77.09
24336;BME280;33098;52.400;16.880;2023-04-02T05:38:45;100590.80;;;5.99;77.02
24336;BME280;33098;52.400;16.880;2023-04-02T05:41:34;100595.24;;;5.92;76.85
24336;BME280;33098;52.400;16.880;2023-04-02T05:44:28;100600.36;;;5.79;76.61
24336;BME280;33098;52.400;16.880;2023-04-02T05:47:05;100600.73;;;5.79;76.97
24336;BME280;33098;52.400;16.880;2023-04-02T05:49:42;100603.39;;;5.85;77.20
24336;BME280;33098;52.400;16.880;2023-04-02T05:52:20;100615.88;;;5.85;77.07
24336;BME280;33098;52.400;16.880;2023-04-02T05:55:21;100616.30;;;5.81;76.90
24336;BME280;33098;52.400;16.880;2023-04-02T05:58:00;100622.38;;;5.82;76.98
24336;BME280;33098;52.400;16.880;2023-04-02T06:06:01;100637.88;;;5.79;76.36
24336;BME280;33098;52.400;16.880;2023-04-02T06:08:51;100644.75;;;5.72;76.07
24336;BME280;33098;52.400;16.880;2023-04-02T06:11:29;100647.27;;;5.65;75.93
24336;BME280;33098;52.400;16.880;2023-04-02T06:13:58;100657.22;;;5.60;75.89
24336;BME280;33098;52.400;16.880;2023-04-02T06:16:28;100658.04;;;5.61;75.93
24336;BME280;33098;52.400;16.880;2023-04-02T06:18:57;100659.17;;;5.63;75.97
24336;BME280;33098;52.400;16.880;2023-04-02T06:21:25;100660.59;;;5.66;75.98
24336;BME280;33098;52.400;16.880;2023-04-02T06:23:58;100662.72;;;5.69;75.93
24336;BME280;33098;52.400;16.880;2023-04-02T06:26:35;100667.67;;;5.68;75.82
24336;BME280;33098;52.400;16.880;2023-04-02T06:31:53;100673.56;;;5.77;75.81
24336;BME280;33098;52.400;16.880;2023-04-02T06:34:23;100676.45;;;5.79;75.67
24336;BME280;33098;52.400;16.880;2023-04-02T06:37:01;100679.05;;;5.83;75.82
24336;BME280;33098;52.400;16.880;2023-04-02T06:39:30;100679.52;;;5.87;75.78
24336;BME280;33098;52.400;16.880;2023-04-02T06:42:20;100687.52;;;5.89;75.67
24336;BME280;33098;52.400;16.880;2023-04-02T06:45:21;100684.23;;;5.91;75.58
24336;BME280;33098;52.400;16.880;2023-04-02T06:48:17;100692.36;;;5.94;75.50
24336;BME280;33098;52.400;16.880;2023-04-02T06:51:05;100696.73;;;6.01;75.50
24336;BME280;33098;52.400;16.880;2023-04-02T06:53:36;100701.93;;;6.03;75.40
24336;BME280;33098;52.400;16.880;2023-04-02T06:58:49;100715.97;;;6.17;75.45
24336;BME280;33098;52.400;16.880;2023-04-02T07:01:28;100722.39;;;6.19;75.19
24336;BME280;33098;52.400;16.880;2023-04-02T07:03:58;100724.11;;;6.19;75.02
24336;BME280;33098;52.400;16.880;2023-04-02T07:06:30;100729.86;;;6.18;75.00
24336;BME280;33098;52.400;16.880;2023-04-02T07:09:00;100733.17;;;6.21;75.04
24336;BME280;33098;52.400;16.880;2023-04-02T07:11:37;100737.08;;;6.30;75.11
24336;BME280;33098;52.400;16.880;2023-04-02T07:14:12;100739.52;;;6.37;74.93
24336;BME280;33098;52.400;16.880;2023-04-02T07:16:42;100742.50;;;6.37;74.70
24336;BME280;33098;52.400;16.880;2023-04-02T07:19:20;100745.65;;;6.34;74.50
24336;BME280;33098;52.400;16.880;2023-04-02T07:21:51;100747.48;;;6.37;74.49
24336;BME280;33098;52.400;16.880;2023-04-02T07:24:23;100746.52;;;6.42;74.46
24336;BME280;33098;52.400;16.880;2023-04-02T07:26:50;100753.16;;;6.49;74.54
24336;BME280;33098;52.400;16.880;2023-04-02T07:29:17;100750.40;;;6.54;74.41
24336;BME280;33098;52.400;16.880;2023-04-02T07:31:45;100755.45;;;6.49;73.98
24336;BME280;33098;52.400;16.880;2023-04-02T07:34:12;100755.09;;;6.46;73.92
24336;BME280;33098;52.400;16.880;2023-04-02T07:36:42;100761.16;;;6.45;73.86
24336;BME280;33098;52.400;16.880;2023-04-02T07:39:09;100767.48;;;6.45;73.79
24336;BME280;33098;52.400;16.880;2023-04-02T07:41:53;100768.02;;;6.41;73.56
24336;BME280;33098;52.400;16.880;2023-04-02T07:44:20;100775.71;;;6.40;73.65
24336;BME280;33098;52.400;16.880;2023-04-02T07:46:50;100774.66;;;6.43;73.61
24336;BME280;33098;52.400;16.880;2023-04-02T07:49:18;100783.65;;;6.43;73.47
24336;BME280;33098;52.400;16.880;2023-04-02T07:51:44;100788.46;;;6.42;73.45
24336;BME280;33098;52.400;16.880;2023-04-02T07:54:12;100791.70;;;6.37;73.33
24336;BME280;33098;52.400;16.880;2023-04-02T07:56:41;100799.19;;;6.39;73.34
24336;BME280;33098;52.400;16.880;2023-04-02T07:59:08;100804.29;;;6.39;73.29
24336;BME280;33098;52.400;16.880;2023-04-02T08:01:38;100812.58;;;6.39;73.22
24336;BME280;33098;52.400;16.880;2023-04-02T08:04:05;100819.75;;;6.40;73.19
24336;BME280;33098;52.400;16.880;2023-04-02T08:06:35;100819.02;;;6.44;73.24
24336;BME280;33098;52.400;16.880;2023-04-02T08:09:04;100823.93;;;6.47;73.25
24336;BME280;33098;52.400;16.880;2023-04-02T08:11:31;100825.46;;;6.52;73.28
24336;BME280;33098;52.400;16.880;2023-04-02T08:13:58;100827.80;;;6.51;73.07
24336;BME280;33098;52.400;16.880;2023-04-02T08:16:28;100826.25;;;6.53;73.11
24336;BME280;33098;52.400;16.880;2023-04-02T08:19:09;100826.14;;;6.62;73.30
24336;BME280;33098;52.400;16.880;2023-04-02T08:21:35;100830.42;;;6.74;73.28
24336;BME280;33098;52.400;16.880;2023-04-02T08:24:05;100834.66;;;6.83;73.31
24336;BME280;33098;52.400;16.880;2023-04-02T08:26:33;100837.70;;;6.88;73.13
24336;BME280;33098;52.400;16.880;2023-04-02T08:28:59;100840.23;;;6.84;72.77
24336;BME280;33098;52.400;16.880;2023-04-02T08:31:44;100838.95;;;6.82;72.64
24336;BME280;33098;52.400;16.880;2023-04-02T08:34:11;100845.50;;;6.81;72.66
24336;BME280;33098;52.400;16.880;2023-04-02T08:36:43;100848.41;;;6.86;72.66
24336;BME280;33098;52.400;16.880;2023-04-02T08:39:10;100853.15;;;6.93;72.73
24336;BME280;33098;52.400;16.880;2023-04-02T08:41:54;100856.39;;;6.98;72.59
24336;BME280;33098;52.400;16.880;2023-04-02T08:47:37;100856.34;;;7.02;72.44
24336;BME280;33098;52.400;16.880;2023-04-02T08:50:36;100855.61;;;7.02;72.33
24336;BME280;33098;52.400;16.880;2023-04-02T08:53:32;100859.71;;;7.05;72.28
24336;BME280;33098;52.400;16.880;2023-04-02T08:58:49;100862.61;;;7.13;72.33
24336;BME280;33098;52.400;16.880;2023-04-02T09:01:38;100866.20;;;7.05;72.10
24336;BME280;33098;52.400;16.880;2023-04-02T09:04:20;100865.13;;;6.99;72.10
24336;BME280;33098;52.400;16.880;2023-04-02T09:06:51;100868.58;;;7.01;72.21
24336;BME280;33098;52.400;16.880;2023-04-02T09:09:20;100873.23;;;7.06;72.33
24336;BME280;33098;52.400;16.880;2023-04-02T09:11:59;100875.79;;;7.17;72.47
24336;BME280;33098;52.400;16.880;2023-04-02T09:14:48;100880.06;;;7.29;72.48
24336;BME280;33098;52.400;16.880;2023-04-02T09:17:24;100886.08;;;7.35;72.31
24336;BME280;33098;52.400;16.880;2023-04-02T09:20:00;100888.42;;;7.34;72.07
24336;BME280;33098;52.400;16.880;2023-04-02T09:22:35;100894.58;;;7.34;72.06
24336;BME280;33098;52.400;16.880;2023-04-02T09:25:04;100895.02;;;7.39;72.06
24336;BME280;33098;52.400;16.880;2023-04-02T09:27:34;100897.80;;;7.40;71.97
24336;BME280;33098;52.400;16.880;2023-04-02T09:33:06;100902.64;;;7.54;72.02
24336;BME280;33098;52.400;16.880;2023-04-02T09:35:54;100909.65;;;7.54;71.73
24336;BME280;33098;52.400;16.880;2023-04-02T09:38:26;100913.25;;;7.50;71.36
24336;BME280;33098;52.400;16.880;2023-04-02T09:41:06;100915.00;;;7.45;71.23
24336;BME280;33098;52.400;16.880;2023-04-02T09:43:46;100918.22;;;7.47;71.43
24336;BME280;33098;52.400;16.880;2023-04-02T09:46:17;100927.37;;;7.53;71.46
24336;BME280;33098;52.400;16.880;2023-04-02T09:49:10;100934.80;;;7.53;71.28
24336;BME280;33098;52.400;16.880;2023-04-02T09:51:37;100932.66;;;7.51;71.15
24336;BME280;33098;52.400;16.880;2023-04-02T09:54:07;100938.04;;;7.49;71.18
24336;BME280;33098;52.400;16.880;2023-04-02T09:56:42;100937.64;;;7.56;71.36
24336;BME280;33098;52.400;16.880;2023-04-02T09:59:26;100943.95;;;7.66;71.33
24336;BME280;33098;52.400;16.880;2023-04-02T10:04:33;100940.20;;;7.67;70.91
24336;BME280;33098;52.400;16.880;2023-04-02T10:07:01;100947.33;;;7.72;70.92
24336;BME280;33098;52.400;16.880;2023-04-02T10:09:33;100946.91;;;7.82;71.01
24336;BME280;33098;52.400;16.880;2023-04-02T10:12:05;100949.62;;;7.93;71.16
24336;BME280;33098;52.400;16.880;2023-04-02T10:14:40;100952.32;;;8.04;71.02
24336;BME280;33098;52.400;16.880;2023-04-02T10:17:21;100953.80;;;8.12;70.86
24336;BME280;33098;52.400;16.880;2023-04-02T10:20:10;100957.94;;;8.19;70.74
24336;BME280;33098;52.400;16.880;2023-04-02T10:22:43;100955.36;;;8.27;70.61
24336;BME280;33098;52.400;16.880;2023-04-02T10:25:14;100961.58;;;8.39;70.71
24336;BME280;33098;52.400;16.880;2023-04-02T10:28:52;100961.78;;;8.44;70.54
24336;BME280;33098;52.400;16.880;2023-04-02T10:31:02;100965.98;;;8.42;70.20
24336;BME280;33098;52.400;16.880;2023-04-02T10:33:37;100968.09;;;8.48;70.28
24336;BME280;33098;52.400;16.880;2023-04-02T10:36:16;100973.39;;;8.48;69.99
24336;BME280;33098;52.400;16.880;2023-04-02T10:38:54;100977.77;;;8.46;69.99
24336;BME280;33098;52.400;16.880;2023-04-02T10:41:33;100980.63;;;8.42;69.69
24336;BME280;33098;52.400;16.880;2023-04-02T10:44:17;100983.28;;;8.36;69.57
24336;BME280;33098;52.400;16.880;2023-04-02T10:55:29;101002.77;;;8.12;69.03
24336;BME280;33098;52.400;16.880;2023-04-02T10:58:04;101007.34;;;8.09;68.97
24336;BME280;33098;52.400;16.880;2023-04-02T11:00:41;101011.28;;;8.06;68.82
24336;BME280;33098;52.400;16.880;2023-04-02T11:03:51;101017.49;;;8.05;68.84
24336;BME280;33098;52.400;16.880;2023-04-02T11:06:20;101017.39;;;8.07;68.86
24336;BME280;33098;52.400;16.880;2023-04-02T11:08:51;101020.09;;;8.09;69.03
24336;BME280;33098;52.400;16.880;2023-04-02T11:11:25;101022.02;;;8.10;68.91
24336;BME280;33098;52.400;16.880;2023-04-02T11:14:04;101026.79;;;8.09;68.79
24336;BME280;33098;52.400;16.880;2023-04-02T11:16:37;101030.35;;;8.12;68.83
24336;BME280;33098;52.400;16.880;2023-04-02T11:21:47;101037.85;;;8.23;68.64
24336;BME280;33098;52.400;16.880;2023-04-02T11:42:45;101071.85;;;8.07;67.86
24336;BME280;33098;52.400;16.880;2023-04-02T11:52:58;101083.16;;;8.04;67.48
24336;BME280;33098;52.400;16.880;2023-04-02T11:55:31;101090.23;;;8.04;67.51
24336;BME280;33098;52.400;16.880;2023-04-02T12:09:44;101107.08;;;8.27;67.04
24336;BME280;33098;52.400;16.880;2023-04-02T12:14:51;101111.03;;;8.26;66.50
24336;BME280;33098;52.400;16.880;2023-04-02T12:17:38;101111.16;;;8.24;66.48
24336;BME280;33098;52.400;16.880;2023-04-02T12:22:59;101113.11;;;8.18;66.13
24336;BME280;33098;52.400;16.880;2023-04-02T12:25:32;101111.90;;;8.17;66.04
24336;BME280;33098;52.400;16.880;2023-04-02T12:30:41;101118.13;;;8.23;66.05
24336;BME280;33098;52.400;16.880;2023-04-02T12:33:33;101115.98;;;8.26;66.02
24336;BME280;33098;52.400;16.880;2023-04-02T12:36:22;101123.85;;;8.28;66.08
24336;BME280;33098;52.400;16.880;2023-04-02T12:38:57;101123.25;;;8.26;66.00
24336;BME280;33098;52.400;16.880;2023-04-02T12:41:27;101127.29;;;8.26;65.75
24336;BME280;33098;52.400;16.880;2023-04-02T12:44:10;101127.01;;;8.28;65.63
24336;BME280;33098;52.400;16.880;2023-04-02T12:46:42;101128.20;;;8.23;65.38
24336;BME280;33098;52.400;16.880;2023-04-02T12:51:48;101129.96;;;8.20;65.25
24336;BME280;33098;52.400;16.880;2023-04-02T12:54:16;101127.09;;;8.21;65.28
24336;BME280;33098;52.400;16.880;2023-04-02T12:56:44;101129.92;;;8.24;65.32
24336;BME280;33098;52.400;16.880;2023-04-02T12:59:46;101134.06;;;8.31;65.46
24336;BME280;33098;52.400;16.880;2023-04-02T13:02:41;101132.69;;;8.40;65.25
24336;BME280;33098;52.400;16.880;2023-04-02T13:05:10;101135.42;;;8.42;64.99
24336;BME280;33098;52.400;16.880;2023-04-02T13:07:46;101134.86;;;8.43;64.98
24336;BME280;33098;52.400;16.880;2023-04-02T13:10:24;101142.37;;;8.48;64.95
24336;BME280;33098;52.400;16.880;2023-04-02T13:13:00;101139.66;;;8.51;64.91
24336;BME280;33098;52.400;16.880;2023-04-02T13:15:31;101142.20;;;8.41;64.52
24336;BME280;33098;52.400;16.880;2023-04-02T13:20:39;101150.36;;;8.37;64.52
24336;BME280;33098;52.400;16.880;2023-04-02T13:25:53;101149.59;;;8.39;64.37
24336;BME280;33098;52.400;16.880;2023-04-02T13:28:24;101151.58;;;8.44;64.45
24336;BME280;33098;52.400;16.880;2023-04-02T13:30:50;101150.94;;;8.43;64.16
24336;BME280;33098;52.400;16.880;2023-04-02T13:33:17;101155.48;;;8.38;64.05
24336;BME280;33098;52.400;16.880;2023-04-02T13:35:44;101152.16;;;8.37;64.04
24336;BME280;33098;52.400;16.880;2023-04-02T13:38:13;101159.64;;;8.30;63.73
24336;BME280;33098;52.400;16.880;2023-04-02T13:40:43;101162.19;;;8.22;63.61
24336;BME280;33098;52.400;16.880;2023-04-02T13:43:17;101166.19;;;8.23;63.58
24336;BME280;33098;52.400;16.880;2023-04-02T13:45:49;101172.08;;;8.19;63.35
24336;BME280;33098;52.400;16.880;2023-04-02T13:48:18;101173.39;;;8.18;63.52
24336;BME280;33098;52.400;16.880;2023-04-02T13:50:49;101175.67;;;8.22;63.64
24336;BME280;33098;52.400;16.880;2023-04-02T13:53:27;101184.23;;;8.23;63.55
24336;BME280;33098;52.400;16.880;2023-04-02T13:55:56;101182.52;;;8.25;63.45
24336;BME280;33098;52.400;16.880;2023-04-02T13:58:25;101182.65;;;8.29;63.53
24336;BME280;33098;52.400;16.880;2023-04-02T14:00:56;101188.95;;;8.33;63.54
24336;BME280;33098;52.400;16.880;2023-04-02T14:03:26;101186.80;;;8.40;63.50
24336;BME280;33098;52.400;16.880;2023-04-02T14:06:09;101191.05;;;8.47;63.52
24336;BME280;33098;52.400;16.880;2023-04-02T14:09:04;101190.05;;;8.52;63.23
24336;BME280;33098;52.400;16.880;2023-04-02T14:25:25;101203.29;;;8.68;62.51
24336;BME280;33098;52.400;16.880;2023-04-02T14:33:39;101210.03;;;8.74;62.35
24336;BME280;33098;52.400;16.880;2023-04-02T14:39:16;101216.25;;;8.79;62.25
24336;BME280;33098;52.400;16.880;2023-04-02T14:42:00;101220.27;;;8.83;62.22
24336;BME280;33098;52.400;16.880;2023-04-02T14:44:35;101220.42;;;8.83;62.17
24336;BME280;33098;52.400;16.880;2023-04-02T14:47:15;101224.16;;;8.83;61.91
24336;BME280;33098;52.400;16.880;2023-04-02T14:49:44;101226.30;;;8.83;61.68
24336;BME280;33098;52.400;16.880;2023-04-02T14:52:18;101226.95;;;8.80;61.63
24336;BME280;33098;52.400;16.880;2023-04-02T14:54:59;101228.11;;;8.76;61.38
24336;BME280;33098;52.400;16.880;2023-04-02T14:57:31;101231.15;;;8.66;61.07
24336;BME280;33098;52.400;16.880;2023-04-02T15:00:26;101231.09;;;8.61;61.13
24336;BME280;33098;52.400;16.880;2023-04-02T15:05:46;101232.63;;;8.65;61.24
24336;BME280;33098;52.400;16.880;2023-04-02T15:08:26;101234.52;;;8.70;61.21
24336;BME280;33098;52.400;16.880;2023-04-02T15:11:23;101239.50;;;8.69;61.01
24336;BME280;33098;52.400;16.880;2023-04-02T15:14:34;101243.96;;;8.69;61.00
24336;BME280;33098;52.400;16.880;2023-04-02T15:17:09;101243.41;;;8.72;60.69
24336;BME280;33098;52.400;16.880;2023-04-02T15:19:40;101245.13;;;8.76;60.76
24336;BME280;33098;52.400;16.880;2023-04-02T15:25:28;101245.85;;;8.85;60.40
24336;BME280;33098;52.400;16.880;2023-04-02T15:30:51;101258.76;;;8.82;59.85
24336;BME280;33098;52.400;16.880;2023-04-02T15:33:37;101269.43;;;8.72;59.46
24336;BME280;33098;52.400;16.880;2023-04-02T15:39:06;101275.86;;;8.64;59.19
24336;BME280;33098;52.400;16.880;2023-04-02T15:41:40;101274.86;;;8.70;59.23
24336;BME280;33098;52.400;16.880;2023-04-02T15:44:15;101285.13;;;8.76;59.22
24336;BME280;33098;52.400;16.880;2023-04-02T15:47:09;101286.54;;;8.82;58.92
24336;BME280;33098;52.400;16.880;2023-04-02T15:52:37;101292.48;;;8.98;58.62
24336;BME280;33098;52.400;16.880;2023-04-02T15:55:34;101296.56;;;9.02;58.47
24336;BME280;33098;52.400;16.880;2023-04-02T16:00:47;101301.91;;;9.16;58.54
24336;BME280;33098;52.400;16.880;2023-04-02T16:04:00;101306.47;;;9.17;58.34
24336;BME280;33098;52.400;16.880;2023-04-02T16:12:15;101316.21;;;9.05;57.85
24336;BME280;33098;52.400;16.880;2023-04-02T16:14:45;101321.67;;;9.02;57.82
24336;BME280;33098;52.400;16.880;2023-04-02T16:17:38;101330.58;;;8.95;57.89
24336;BME280;33098;52.400;16.880;2023-04-02T16:20:27;101332.10;;;8.84;57.46
24336;BME280;33098;52.400;16.880;2023-04-02T16:23:01;101337.20;;;8.69;57.14
24336;BME280;33098;52.400;16.880;2023-04-02T16:25:37;101339.08;;;8.64;57.21
24336;BME280;33098;52.400;16.880;2023-04-02T16:28:17;101346.67;;;8.57;57.22
24336;BME280;33098;52.400;16.880;2023-04-02T16:33:52;101353.98;;;8.43;57.12
24336;BME280;33098;52.400;16.880;2023-04-02T16:36:40;101363.91;;;8.40;57.10
24336;BME280;33098;52.400;16.880;2023-04-02T16:39:36;101369.34;;;8.33;57.05
24336;BME280;33098;52.400;16.880;2023-04-02T16:45:25;101381.56;;;8.27;56.79
24336;BME280;33098;52.400;16.880;2023-04-02T16:51:24;101388.60;;;8.18;56.74
24336;BME280;33098;52.400;16.880;2023-04-02T16:54:20;101388.54;;;8.12;56.70
24336;BME280;33098;52.400;16.880;2023-04-02T16:57:34;101389.25;;;8.06;56.63